createdAt,value
2022-11-11T00:02:39.791Z,22.10
2022-11-11T00:07:43.442Z,19.30
2022-11-11T00:12:46.398Z,25.20
2022-11-11T00:18:09.219Z,22.40
2022-11-11T00:23:40.749Z,20.60
2022-11-11T00:28:43.520Z,23.20
2022-11-11T00:33:46.478Z,22.40
2022-11-11T00:38:50.020Z,22.30
2022-11-11T00:43:52.956Z,20.40
2022-11-11T00:49:14.666Z,21.70
2022-11-11T00:54:17.593Z,21.70
2022-11-11T00:59:20.522Z,24.50
2022-11-11T01:04:24.287Z,24.40
2022-11-11T01:09:27.299Z,20.90
2022-11-11T01:14:30.964Z,26.10
2022-11-11T01:19:33.813Z,25.40
2022-11-11T01:24:38.733Z,29.20
2022-11-11T01:29:41.740Z,24.30
2022-11-11T01:34:44.946Z,28.40
2022-11-11T01:39:47.912Z,28.60
2022-11-11T01:44:51.507Z,25.30
2022-11-11T01:49:57.811Z,43.90
2022-11-11T01:55:16.003Z,45.70
2022-11-11T02:00:19.629Z,36.00
2022-11-11T02:05:42.150Z,33.30
2022-11-11T02:10:45.375Z,33.60
2022-11-11T02:15:48.225Z,36.00
2022-11-11T02:20:51.012Z,35.80
2022-11-11T02:25:53.948Z,32.40
2022-11-11T02:30:56.860Z,27.00
2022-11-11T02:35:59.852Z,22.30
2022-11-11T02:41:21.406Z,21.90
2022-11-11T02:46:24.401Z,20.20
2022-11-11T02:51:27.184Z,18.90
2022-11-11T02:56:48.866Z,17.80
2022-11-11T03:01:51.968Z,20.90
2022-11-11T03:06:55.129Z,17.40
2022-11-11T03:11:58.120Z,17.90
2022-11-11T03:17:19.550Z,15.30
2022-11-11T03:27:46.586Z,19.20
2022-11-11T03:32:49.375Z,16.90
2022-11-11T03:38:10.955Z,18.90
2022-11-11T03:43:16.261Z,18.00
2022-11-11T03:48:19.178Z,21.00
2022-11-11T03:53:22.783Z,20.40
2022-11-11T03:58:26.286Z,20.40
2022-11-11T04:03:47.855Z,19.20
2022-11-11T04:09:09.467Z,20.10
2022-11-11T04:14:32.531Z,20.60
2022-11-11T04:19:55.728Z,20.60
2022-11-11T04:25:17.226Z,26.20
2022-11-11T04:30:20.044Z,20.40
2022-11-11T04:35:24.157Z,21.00
2022-11-11T04:40:45.795Z,18.80
2022-11-11T04:45:48.608Z,19.20
2022-11-11T04:50:51.530Z,18.60
2022-11-11T04:56:13.039Z,22.60
2022-11-11T05:01:35.853Z,18.70
2022-11-11T05:06:59.612Z,19.00
2022-11-11T05:12:03.110Z,19.80
2022-11-11T05:17:25.127Z,17.00
2022-11-11T05:22:40.931Z,19.00
2022-11-11T05:27:43.871Z,18.30
2022-11-11T05:32:46.661Z,16.20
2022-11-11T05:38:09.382Z,17.60
2022-11-11T05:43:12.256Z,17.70
2022-11-11T05:48:15.385Z,19.50
2022-11-11T05:53:24.680Z,19.90
2022-11-11T05:58:27.875Z,18.10
2022-11-11T06:03:30.705Z,19.80
2022-11-11T06:08:33.557Z,20.10
2022-11-11T06:13:36.480Z,19.00
2022-11-11T06:18:39.290Z,19.60
2022-11-11T06:23:44.532Z,17.90
2022-11-11T06:28:57.725Z,18.10
2022-11-11T06:34:00.862Z,18.80
2022-11-11T06:39:03.624Z,16.70
2022-11-11T06:44:06.438Z,17.50
2022-11-11T06:49:09.289Z,18.10
2022-11-11T06:54:12.187Z,17.60
2022-11-11T06:59:15.204Z,17.00
2022-11-11T07:04:18.034Z,19.20
2022-11-11T07:09:20.830Z,15.50
2022-11-11T07:14:23.656Z,16.90
2022-11-11T07:19:26.507Z,16.70
2022-11-11T07:24:29.793Z,17.90
2022-11-11T07:29:32.554Z,21.10
2022-11-11T07:34:35.583Z,15.60
2022-11-11T07:39:39.743Z,16.10
2022-11-11T07:44:49.192Z,17.10
2022-11-11T07:49:52.553Z,17.20
2022-11-11T07:54:55.449Z,15.70
2022-11-11T07:59:58.316Z,17.50
2022-11-11T08:05:01.196Z,17.20
2022-11-11T08:10:04.672Z,17.20
2022-11-11T08:15:09.009Z,15.90
2022-11-11T08:20:12.444Z,16.20
2022-11-11T08:25:15.527Z,15.50
2022-11-11T08:30:18.522Z,16.30
2022-11-11T08:35:21.292Z,19.40
2022-11-11T08:40:24.791Z,17.70
2022-11-11T08:45:29.407Z,14.10
2022-11-11T08:50:33.624Z,16.40
2022-11-11T08:55:36.847Z,14.80
2022-11-11T09:00:39.875Z,14.70
2022-11-11T09:05:42.784Z,17.80
2022-11-11T09:10:45.770Z,16.10
2022-11-11T09:15:48.627Z,13.80
2022-11-11T09:20:52.051Z,20.70
2022-11-11T09:25:55.077Z,13.50
2022-11-11T09:31:22.778Z,11.50
2022-11-11T09:36:24.069Z,14.30
2022-11-11T09:42:14.723Z,14.20
2022-11-11T09:47:36.027Z,12.90
2022-11-11T09:52:56.288Z,14.80
2022-11-11T09:58:04.542Z,14.50
2022-11-11T10:03:10.311Z,12.60
2022-11-11T10:08:29.895Z,11.90
2022-11-11T10:13:37.915Z,13.20
2022-11-11T10:19:17.100Z,10.50
2022-11-11T10:24:30.253Z,14.30
2022-11-11T10:29:44.595Z,16.50
2022-11-11T10:34:47.541Z,13.50
2022-11-11T10:40:16.353Z,13.30
2022-11-11T10:51:02.103Z,12.10
2022-11-11T10:56:11.815Z,14.10
2022-11-11T11:01:20.435Z,14.90
2022-11-11T11:06:31.795Z,13.50
2022-11-11T11:11:40.333Z,11.90
2022-11-11T11:16:51.236Z,13.70
2022-11-11T11:21:59.624Z,14.00
2022-11-11T11:27:08.299Z,17.60
2022-11-11T11:32:19.609Z,14.70
2022-11-11T11:37:24.782Z,17.90
2022-11-11T11:42:37.545Z,13.30
2022-11-11T11:48:09.339Z,16.10
2022-11-11T11:54:01.264Z,11.70
2022-11-11T11:59:22.916Z,15.50
2022-11-11T12:04:48.279Z,14.00
2022-11-11T12:10:33.937Z,12.60
2022-11-11T12:16:07.679Z,19.70
2022-11-11T12:21:18.771Z,16.60
2022-11-11T12:26:44.442Z,17.40
2022-11-11T12:32:02.546Z,13.40
2022-11-11T12:37:24.300Z,16.10
2022-11-11T12:42:37.181Z,17.70
2022-11-11T12:48:39.115Z,12.50
2022-11-11T12:53:56.015Z,15.90
2022-11-11T12:59:36.015Z,11.50
2022-11-11T13:04:57.503Z,10.40
2022-11-11T13:10:45.458Z,14.00
2022-11-11T13:15:51.627Z,13.60
2022-11-11T13:21:00.157Z,11.70
2022-11-11T13:31:20.370Z,13.70
2022-11-11T13:36:26.775Z,11.00
2022-11-11T13:41:35.859Z,14.10
2022-11-11T13:46:50.246Z,12.70
2022-11-11T13:52:22.667Z,13.20
2022-11-11T13:57:32.259Z,11.80
2022-11-11T14:02:35.705Z,11.70
2022-11-11T14:07:44.793Z,10.80
2022-11-11T14:12:51.542Z,10.50
2022-11-11T14:17:54.678Z,12.90
2022-11-11T14:23:18.758Z,11.20
2022-11-11T14:28:27.751Z,14.20
2022-11-11T14:33:49.100Z,14.60
2022-11-11T14:39:22.876Z,14.40
2022-11-11T14:44:25.729Z,12.90
2022-11-11T14:49:57.911Z,13.50
2022-11-11T14:55:07.901Z,13.30
2022-11-11T15:00:21.181Z,14.60
2022-11-11T15:05:49.830Z,11.40
2022-11-11T15:11:33.476Z,13.50
2022-11-11T15:17:17.337Z,13.30
2022-11-11T15:22:36.987Z,13.10
2022-11-11T15:28:02.452Z,15.40
2022-11-11T15:33:41.807Z,15.30
2022-11-11T15:38:44.748Z,14.70
2022-11-11T15:43:48.625Z,14.00
2022-11-11T15:48:53.150Z,16.00
2022-11-11T15:54:32.072Z,13.20
2022-11-11T15:59:42.749Z,14.40
2022-11-11T16:05:05.899Z,13.70
2022-11-11T16:10:38.337Z,14.50
2022-11-11T16:15:47.167Z,15.50
2022-11-11T16:21:11.724Z,17.10
2022-11-11T16:26:15.668Z,16.00
2022-11-11T16:31:45.259Z,16.00
2022-11-11T16:37:02.605Z,18.80
2022-11-11T16:42:22.705Z,15.50
2022-11-11T16:47:32.900Z,19.10
2022-11-11T16:52:57.234Z,15.90
2022-11-11T16:58:20.621Z,17.70
2022-11-11T17:03:28.311Z,15.60
2022-11-11T17:08:46.030Z,16.30
2022-11-11T17:19:09.148Z,13.30
2022-11-11T17:24:33.346Z,16.60
2022-11-11T17:29:41.271Z,17.10
2022-11-11T17:34:45.001Z,15.70
2022-11-11T17:39:51.028Z,15.80
2022-11-11T17:44:54.082Z,19.70
2022-11-11T17:49:57.590Z,18.20
2022-11-11T17:55:00.613Z,18.10
2022-11-11T18:00:04.331Z,15.40
2022-11-11T18:05:07.627Z,21.90
2022-11-11T18:10:10.787Z,16.40
2022-11-11T18:15:13.603Z,17.60
2022-11-11T18:20:23.563Z,18.50
2022-11-11T18:25:26.417Z,14.70
2022-11-11T18:30:29.851Z,15.90
2022-11-11T18:35:33.698Z,17.70
2022-11-11T18:40:38.958Z,18.00
2022-11-11T18:45:41.886Z,21.90
2022-11-11T18:50:44.815Z,17.20
2022-11-11T18:55:52.770Z,16.60
2022-11-11T19:01:15.428Z,17.20
2022-11-11T19:06:20.645Z,18.00
2022-11-11T19:11:24.222Z,18.50
2022-11-11T19:16:27.225Z,15.40
2022-11-11T19:21:33.347Z,19.70
2022-11-11T19:26:36.342Z,19.10
2022-11-11T19:31:39.291Z,16.40
2022-11-11T19:36:42.374Z,17.60
2022-11-11T19:41:45.286Z,19.90
2022-11-11T19:46:49.684Z,15.30
2022-11-11T19:51:57.088Z,15.20
2022-11-11T19:57:01.119Z,20.80
2022-11-11T20:02:04.064Z,18.50
2022-11-11T20:07:09.337Z,20.80
2022-11-11T20:12:12.341Z,20.80
2022-11-11T20:17:18.822Z,14.70
2022-11-11T20:22:27.228Z,18.70
2022-11-11T20:27:30.379Z,19.50
2022-11-11T20:32:33.156Z,17.20
2022-11-11T20:37:38.980Z,15.90
2022-11-11T20:42:41.953Z,20.30
2022-11-11T20:47:46.887Z,18.40
2022-11-11T20:52:50.987Z,18.50
2022-11-11T20:57:53.972Z,20.10
2022-11-11T21:02:57.462Z,19.10
2022-11-11T21:08:01.143Z,17.50
2022-11-11T21:13:04.393Z,21.60
2022-11-11T21:18:27.578Z,20.00
2022-11-11T21:23:32.300Z,20.30
2022-11-11T21:28:37.187Z,20.40
2022-11-11T21:33:40.023Z,22.30
2022-11-11T21:38:43.846Z,19.20
2022-11-11T21:43:47.201Z,21.10
2022-11-11T21:48:50.254Z,15.20
2022-11-11T21:54:02.506Z,19.10
2022-11-11T21:59:07.073Z,18.70
2022-11-11T22:04:13.559Z,15.90
2022-11-11T22:09:16.807Z,20.40
2022-11-11T22:14:20.173Z,16.70
2022-11-11T22:19:23.184Z,19.90
2022-11-11T22:24:26.014Z,18.20
2022-11-11T22:29:28.848Z,17.60
2022-11-11T22:34:31.619Z,18.70
2022-11-11T22:39:34.537Z,17.80
2022-11-11T22:44:37.409Z,18.20
2022-11-11T22:49:40.324Z,18.60
2022-11-11T22:54:43.158Z,17.10
2022-11-11T22:59:46.148Z,16.80
2022-11-11T23:04:49.120Z,18.70
2022-11-11T23:09:52.124Z,19.00
2022-11-11T23:14:56.777Z,18.30
2022-11-11T23:20:00.741Z,19.20
2022-11-11T23:25:03.913Z,19.70
2022-11-11T23:30:07.788Z,18.80
2022-11-11T23:35:10.695Z,19.30
2022-11-11T23:40:13.623Z,16.90
2022-11-11T23:45:16.453Z,17.60
2022-11-11T23:50:19.298Z,20.00
2022-11-11T23:55:22.153Z,21.30
